Time;durP1;ratioP1;P1;durP2;ratioP2;P2;SDS_P1;SDS_P2;PMS_P1;PMS_P2;Temp;Humidity;BMP_temperature;BMP_pressure;BME280_temperature;BME280_humidity;BME280_pressure;Samples;Min_cycle;Max_cycle;Signal;HPM_P1;HPM_P2
2022/05/31 00:00:05;;;;;;;2.00;1.73;;;13.50;58.20;;;;;;7392165;19;21231;-83
2022/05/31 00:02:44;;;;;;;3.90;1.50;;;13.50;58.70;;;;;;7398049;19;20416;-83
2022/05/31 00:05:19;;;;;;;2.23;1.60;;;13.50;58.90;;;;;;7386896;19;20404;-84
2022/05/31 00:07:48;;;;;;;1.73;1.60;;;13.40;59.30;;;;;;7395726;19;20408;-84
2022/05/31 00:10:20;;;;;;;2.23;1.97;;;13.30;59.50;;;;;;7382453;19;21768;-82
2022/05/31 00:12:52;;;;;;;2.20;1.80;;;13.30;59.50;;;;;;7376027;19;21888;-83
2022/05/31 00:15:23;;;;;;;2.50;1.87;;;13.30;59.60;;;;;;7366378;19;20404;-82
2022/05/31 00:17:58;;;;;;;2.40;1.90;;;13.30;59.30;;;;;;7369563;19;20412;-81
2022/05/31 00:20:29;;;;;;;4.90;2.00;;;13.10;59.80;;;;;;7372819;19;20491;-81
2022/05/31 00:22:58;;;;;;;2.03;1.27;;;12.90;61.50;;;;;;7371835;19;20431;-82
2022/05/31 00:25:30;;;;;;;1.70;1.60;;;12.90;62.50;;;;;;7370372;19;20932;-82
2022/05/31 00:27:59;;;;;;;2.10;1.70;;;12.60;62.40;;;;;;7372613;19;20408;-82
2022/05/31 00:30:29;;;;;;;3.53;2.00;;;12.50;64.10;;;;;;7369716;19;20404;-82
2022/05/31 00:33:02;;;;;;;2.63;1.90;;;12.60;64.10;;;;;;7374992;19;20432;-82
2022/05/31 00:35:36;;;;;;;2.47;1.60;;;12.70;62.90;;;;;;7378845;19;20408;-83
2022/05/31 00:38:06;;;;;;;1.87;1.77;;;12.70;63.10;;;;;;7378606;19;20936;-83
2022/05/31 00:40:37;;;;;;;3.90;2.70;;;12.80;62.50;;;;;;7377854;19;21055;-85
2022/05/31 00:43:09;;;;;;;3.50;1.97;;;12.80;62.80;;;;;;7387841;19;20431;-84
2022/05/31 00:45:40;;;;;;;2.40;2.03;;;12.60;63.10;;;;;;7382995;19;20400;-85
2022/05/31 00:48:26;;;;;;;1.60;1.50;;;12.50;63.90;;;;;;7389390;19;20900;-84
2022/05/31 00:50:58;;;;;;;2.50;2.10;;;12.40;64.30;;;;;;7388584;19;20728;-85
2022/05/31 00:53:30;;;;;;;2.90;1.67;;;12.40;64.30;;;;;;7385808;19;20412;-85
2022/05/31 00:56:02;;;;;;;1.87;1.67;;;12.30;64.60;;;;;;7383345;19;20419;-84
2022/05/31 00:58:36;;;;;;;1.60;1.50;;;12.40;64.00;;;;;;7386124;19;20421;-84
2022/05/31 01:01:12;;;;;;;4.10;2.27;;;12.30;64.30;;;;;;7385418;19;20407;-85
2022/05/31 01:03:46;;;;;;;2.40;1.77;;;12.20;64.90;;;;;;7386579;19;20491;-85
2022/05/31 01:06:16;;;;;;;4.40;1.70;;;12.20;65.50;;;;;;7386479;19;20756;-86
2022/05/31 01:08:47;;;;;;;2.10;1.80;;;12.30;64.90;;;;;;7387538;19;20396;-85
2022/05/31 01:11:38;;;;;;;2.27;1.47;;;12.20;64.80;;;;;;7386907;19;20486;-85
2022/05/31 01:14:26;;;;;;;1.87;1.47;;;12.20;65.00;;;;;;7387310;19;20404;-84
2022/05/31 01:17:19;;;;;;;2.40;1.60;;;12.20;65.60;;;;;;7384993;19;20405;-85
2022/05/31 01:20:11;;;;;;;2.03;1.70;;;12.10;65.80;;;;;;7384499;19;20483;-85
2022/05/31 01:22:51;;;;;;;6.90;2.00;;;12.10;65.80;;;;;;7387155;19;20420;-85
2022/05/31 01:25:35;;;;;;;2.50;1.90;;;12.00;65.80;;;;;;7383943;19;21106;-84
2022/05/31 01:28:16;;;;;;;2.47;1.90;;;11.80;67.00;;;;;;7383463;19;20397;-85
2022/05/31 01:30:57;;;;;;;3.53;1.80;;;11.80;67.20;;;;;;7385817;19;20745;-85
2022/05/31 01:33:31;;;;;;;3.97;1.80;;;11.80;67.50;;;;;;7386602;19;20994;-85
2022/05/31 01:36:10;;;;;;;2.00;1.70;;;11.70;68.20;;;;;;7382778;19;20401;-85
2022/05/31 01:38:43;;;;;;;1.83;1.70;;;11.80;68.30;;;;;;7384483;19;21247;-85
2022/05/31 01:41:22;;;;;;;2.90;2.10;;;11.80;68.60;;;;;;7383032;19;20975;-85
2022/05/31 01:43:55;;;;;;;2.37;2.17;;;11.80;68.10;;;;;;7382717;19;20459;-85
2022/05/31 01:46:29;;;;;;;3.27;1.53;;;11.80;68.30;;;;;;7386592;19;21371;-85
2022/05/31 01:49:00;;;;;;;2.53;2.33;;;11.70;69.10;;;;;;7385149;19;20416;-84
2022/05/31 01:51:32;;;;;;;2.43;2.23;;;11.80;69.00;;;;;;7384466;19;20943;-84
2022/05/31 01:54:02;;;;;;;2.10;1.87;;;11.90;68.80;;;;;;7380730;19;20429;-84
2022/05/31 01:56:35;;;;;;;2.60;1.70;;;11.60;70.10;;;;;;7381969;19;20428;-84
2022/05/31 01:59:06;;;;;;;2.50;2.30;;;11.60;70.10;;;;;;7381086;19;20749;-85
2022/05/31 02:01:41;;;;;;;2.13;1.50;;;11.70;70.00;;;;;;7384366;19;20891;-85
2022/05/31 02:04:11;;;;;;;3.40;2.10;;;11.90;69.40;;;;;;7383237;19;20415;-85
2022/05/31 02:06:44;;;;;;;3.50;2.20;;;11.80;69.40;;;;;;7386391;19;20932;-85
2022/05/31 02:09:16;;;;;;;2.87;1.90;;;11.90;69.70;;;;;;7382923;19;20412;-84
2022/05/31 02:11:48;;;;;;;3.07;1.90;;;11.80;69.30;;;;;;7380520;19;20991;-85
2022/05/31 02:14:27;;;;;;;2.30;1.67;;;11.80;69.70;;;;;;7383025;19;20420;-85
2022/05/31 02:16:56;;;;;;;2.73;1.77;;;11.70;70.50;;;;;;7380851;19;20519;-85
2022/05/31 02:19:44;;;;;;;1.87;1.70;;;11.70;70.80;;;;;;7383136;19;20822;-85
2022/05/31 02:22:30;;;;;;;3.23;2.17;;;11.60;70.80;;;;;;7383309;19;20776;-84
2022/05/31 02:25:00;;;;;;;2.17;1.97;;;11.60;71.70;;;;;;7381980;19;20400;-85
2022/05/31 02:27:34;;;;;;;1.93;1.63;;;11.80;71.00;;;;;;7379638;19;20687;-84
2022/05/31 02:30:03;;;;;;;4.00;2.47;;;11.80;70.40;;;;;;7379621;19;20424;-82
2022/05/31 02:32:34;;;;;;;2.83;2.03;;;11.90;70.20;;;;;;7382549;19;21027;-85
2022/05/31 02:35:05;;;;;;;3.03;1.70;;;11.80;71.20;;;;;;7380471;19;20412;-85
2022/05/31 02:37:37;;;;;;;2.70;1.70;;;11.50;73.10;;;;;;7379680;19;20949;-85
2022/05/31 02:40:09;;;;;;;6.07;2.10;;;11.70;72.80;;;;;;7377059;19;20416;-85
2022/05/31 02:42:39;;;;;;;1.93;1.80;;;11.80;71.10;;;;;;7380563;19;21075;-85
2022/05/31 02:45:10;;;;;;;3.03;2.03;;;11.80;71.10;;;;;;7380249;19;20443;-85
2022/05/31 02:47:40;;;;;;;3.47;1.63;;;11.90;70.60;;;;;;7381887;19;20376;-85
2022/05/31 02:50:10;;;;;;;1.90;1.70;;;11.60;70.90;;;;;;7380521;19;20404;-84
2022/05/31 02:52:42;;;;;;;3.77;1.90;;;11.60;71.50;;;;;;7379128;19;20429;-83
2022/05/31 02:55:15;;;;;;;1.80;1.70;;;11.50;72.40;;;;;;7377649;19;20419;-84
2022/05/31 02:58:14;;;;;;;2.57;1.90;;;11.50;73.00;;;;;;7371256;19;20493;-84
2022/05/31 03:01:02;;;;;;;2.27;2.07;;;11.50;73.50;;;;;;7373429;19;20441;-84
2022/05/31 03:04:05;;;;;;;4.53;2.10;;;11.60;72.90;;;;;;7375541;19;20414;-83
2022/05/31 03:07:01;;;;;;;2.67;2.00;;;11.70;72.80;;;;;;7378463;19;20420;-83
2022/05/31 03:09:35;;;;;;;2.40;1.90;;;11.60;72.10;;;;;;7373965;19;21058;-84
2022/05/31 03:12:12;;;;;;;2.37;2.00;;;11.70;72.50;;;;;;7370223;19;20400;-84
2022/05/31 03:14:48;;;;;;;5.83;2.00;;;11.70;73.00;;;;;;7374974;19;20399;-84
2022/05/31 03:17:25;;;;;;;3.77;3.47;;;11.70;73.00;;;;;;7371882;19;20404;-84
2022/05/31 03:20:00;;;;;;;2.50;2.30;;;11.40;73.70;;;;;;7375440;19;20442;-83
2022/05/31 03:22:36;;;;;;;2.20;1.90;;;11.30;74.50;;;;;;7367153;19;20404;-84
2022/05/31 03:25:16;;;;;;;2.30;2.10;;;11.30;74.70;;;;;;7370590;19;20400;-84
2022/05/31 03:27:49;;;;;;;2.17;1.97;;;11.40;74.80;;;;;;7376703;19;20559;-82
2022/05/31 03:30:21;;;;;;;2.30;2.10;;;11.30;74.90;;;;;;7375706;19;21647;-83
2022/05/31 03:32:52;;;;;;;4.07;1.93;;;11.30;75.40;;;;;;7375624;19;21441;-84
2022/05/31 03:35:22;;;;;;;2.53;2.33;;;11.30;75.60;;;;;;7378924;19;20949;-84
2022/05/31 03:37:52;;;;;;;4.10;2.30;;;11.30;75.10;;;;;;7389780;19;20428;-84
2022/05/31 03:43:27;;;;;;;4.37;2.40;;;11.30;74.70;;;;;;7389724;19;20476;-84
2022/05/31 03:46:16;;;;;;;1.80;1.70;;;11.20;75.80;;;;;;7405296;19;20404;-85
2022/05/31 03:49:15;;;;;;;2.20;1.90;;;11.30;75.30;;;;;;7401702;19;20419;-84
2022/05/31 03:51:58;;;;;;;2.40;2.20;;;11.40;74.70;;;;;;7406582;19;20416;-84
2022/05/31 03:54:37;;;;;;;5.30;1.80;;;11.50;74.30;;;;;;7412726;19;20439;-84
2022/05/31 03:57:17;;;;;;;2.40;2.13;;;11.50;74.70;;;;;;7403924;19;20447;-84
2022/05/31 03:59:55;;;;;;;2.57;1.70;;;11.50;75.30;;;;;;7408386;19;20408;-84
2022/05/31 04:02:35;;;;;;;2.77;2.40;;;11.60;74.30;;;;;;7409528;19;20427;-83
2022/05/31 04:05:05;;;;;;;2.27;1.80;;;11.60;74.30;;;;;;7408953;19;20416;-84
2022/05/31 04:07:37;;;;;;;2.23;2.00;;;11.30;75.80;;;;;;7411232;19;20429;-84
2022/05/31 04:10:10;;;;;;;2.27;1.93;;;11.50;76.80;;;;;;7409083;19;20420;-84
2022/05/31 04:12:42;;;;;;;4.60;2.53;;;11.70;74.40;;;;;;7405255;19;20427;-85
2022/05/31 04:15:33;;;;;;;3.73;1.73;;;11.80;74.10;;;;;;7393520;19;20422;-85
2022/05/31 04:18:08;;;;;;;2.20;1.80;;;11.80;73.90;;;;;;7390553;19;20400;-85
2022/05/31 04:20:41;;;;;;;2.60;2.00;;;11.80;74.40;;;;;;7385163;19;20416;-85
2022/05/31 04:26:25;;;;;;;2.97;1.73;;;11.60;75.70;;;;;;7382491;19;20416;-84
2022/05/31 04:29:16;;;;;;;2.67;1.93;;;11.60;76.40;;;;;;7382941;19;20429;-85
2022/05/31 04:32:04;;;;;;;3.33;2.13;;;11.70;76.00;;;;;;7369218;19;20945;-84
2022/05/31 04:34:57;;;;;;;2.13;1.93;;;11.60;77.70;;;;;;7383640;19;20419;-87
2022/05/31 04:37:30;;;;;;;3.70;2.60;;;11.70;77.30;;;;;;7389545;19;20396;-85
2022/05/31 04:40:19;;;;;;;3.60;3.07;;;11.80;77.00;;;;;;7385263;19;20428;-87
2022/05/31 04:43:20;;;;;;;2.97;2.43;;;11.90;77.40;;;;;;7374812;19;20411;-77
2022/05/31 04:46:18;;;;;;;3.03;2.40;;;11.40;79.10;;;;;;7373767;19;20907;-75
2022/05/31 04:49:08;;;;;;;3.83;3.00;;;11.40;80.40;;;;;;7371338;19;21387;-76
2022/05/31 04:51:38;;;;;;;3.37;2.40;;;11.50;80.20;;;;;;7375468;19;21398;-77
2022/05/31 04:54:09;;;;;;;3.03;2.73;;;11.60;80.10;;;;;;7375026;19;20410;-77
2022/05/31 04:56:41;;;;;;;4.17;2.90;;;11.60;80.20;;;;;;7376744;19;21228;-76
2022/05/31 04:59:13;;;;;;;2.33;2.13;;;11.30;82.50;;;;;;7374951;19;20460;-78
2022/05/31 05:01:47;;;;;;;3.50;2.67;;;11.20;84.00;;;;;;7373621;19;20398;-80
2022/05/31 05:04:36;;;;;;;4.50;2.93;;;11.20;84.10;;;;;;7365711;19;20435;-81
2022/05/31 05:07:06;;;;;;;4.43;3.10;;;11.20;84.50;;;;;;7375934;19;20995;-80
2022/05/31 05:09:36;;;;;;;3.93;2.37;;;11.60;84.50;;;;;;7376461;19;20408;-81
2022/05/31 05:12:38;;;;;;;3.33;2.47;;;11.70;83.00;;;;;;7378371;19;20944;-81
2022/05/31 05:15:29;;;;;;;6.60;3.50;;;11.60;84.60;;;;;;7376176;19;20392;-81
2022/05/31 05:18:03;;;;;;;5.83;3.60;;;11.80;83.80;;;;;;7373831;19;20404;-81
2022/05/31 05:20:35;;;;;;;4.73;2.80;;;12.00;82.50;;;;;;7375331;19;20516;-81
2022/05/31 05:23:06;;;;;;;6.97;4.33;;;12.20;81.90;;;;;;7375961;19;20372;-78
2022/05/31 05:25:37;;;;;;;5.37;4.10;;;12.50;79.50;;;;;;7378622;19;20372;-78
2022/05/31 05:30:57;;;;;;;6.10;4.23;;;12.40;75.30;;;;;;7375034;19;20376;-79
2022/05/31 05:33:30;;;;;;;3.57;2.97;;;12.60;75.20;;;;;;7377673;19;20412;-80
2022/05/31 05:36:26;;;;;;;3.97;3.00;;;12.80;73.30;;;;;;7377442;19;20436;-80
2022/05/31 05:38:57;;;;;;;4.23;2.93;;;12.80;76.50;;;;;;7376305;19;20407;-80
2022/05/31 05:41:47;;;;;;;5.37;3.70;;;13.00;76.40;;;;;;7374180;19;20399;-80
2022/05/31 05:44:35;;;;;;;7.40;3.47;;;13.10;75.40;;;;;;7377967;19;20408;-80
2022/05/31 05:47:08;;;;;;;6.20;3.10;;;13.10;72.80;;;;;;7378537;19;20385;-79
2022/05/31 05:49:40;;;;;;;3.83;3.27;;;13.00;75.00;;;;;;7376994;19;20420;-79
2022/05/31 05:52:30;;;;;;;3.83;2.87;;;12.90;75.70;;;;;;7378400;19;20480;-80
2022/05/31 05:55:19;;;;;;;3.80;3.27;;;13.00;73.70;;;;;;7378351;19;20392;-80
2022/05/31 05:58:10;;;;;;;5.67;2.40;;;13.00;72.90;;;;;;7371182;19;20431;-80
2022/05/31 06:00:59;;;;;;;3.37;2.80;;;13.20;74.40;;;;;;7375973;19;20404;-80
2022/05/31 06:03:38;;;;;;;3.50;2.80;;;13.50;71.10;;;;;;7376805;19;20400;-80
2022/05/31 06:06:13;;;;;;;3.40;3.10;;;13.40;70.60;;;;;;7377284;19;20383;-80
2022/05/31 06:08:50;;;;;;;7.70;3.20;;;13.60;71.50;;;;;;7373998;19;20352;-80
2022/05/31 06:11:23;;;;;;;3.13;2.83;;;13.90;69.60;;;;;;7375549;19;20401;-80
2022/05/31 06:13:56;;;;;;;3.50;2.60;;;14.10;68.20;;;;;;7376368;19;20415;-81
2022/05/31 06:16:29;;;;;;;4.23;3.40;;;14.40;65.60;;;;;;7374353;19;20419;-80
2022/05/31 06:19:06;;;;;;;6.30;3.03;;;14.60;65.30;;;;;;7375398;19;20379;-81
2022/05/31 06:21:38;;;;;;;3.10;2.77;;;14.30;65.70;;;;;;7372055;19;20407;-80
2022/05/31 06:24:23;;;;;;;4.13;2.73;;;14.00;67.30;;;;;;7373104;19;20935;-80
2022/05/31 06:26:54;;;;;;;4.17;2.50;;;14.00;68.50;;;;;;7375823;19;20419;-80
2022/05/31 06:29:27;;;;;;;3.20;2.90;;;14.20;66.50;;;;;;7376041;19;20384;-80
2022/05/31 06:31:59;;;;;;;3.17;2.77;;;14.50;64.70;;;;;;7375651;19;20392;-77
2022/05/31 06:34:40;;;;;;;3.33;2.40;;;14.70;63.70;;;;;;7373629;19;20520;-77
2022/05/31 06:37:30;;;;;;;5.00;2.97;;;14.70;63.50;;;;;;7375752;19;20384;-77
2022/05/31 06:40:00;;;;;;;4.07;3.07;;;14.80;65.00;;;;;;7374034;19;20492;-77
2022/05/31 06:42:59;;;;;;;3.73;2.57;;;14.90;63.80;;;;;;7363720;19;21146;-77
2022/05/31 06:45:47;;;;;;;3.53;2.90;;;15.20;63.80;;;;;;7374481;19;20372;-77
2022/05/31 06:48:57;;;;;;;3.73;2.73;;;15.10;63.40;;;;;;7375391;19;21070;-77
2022/05/31 06:58:00;;;;;;;4.97;2.87;;;15.10;62.70;;;;;;7399411;19;20439;-78
2022/05/31 07:00:42;;;;;;;2.40;2.03;;;15.40;62.20;;;;;;7394654;19;20393;-77
2022/05/31 07:03:12;;;;;;;2.73;1.93;;;15.60;61.80;;;;;;7376805;19;20800;-77
2022/05/31 07:05:43;;;;;;;1.50;1.40;;;15.50;62.10;;;;;;7406461;19;20432;-77
2022/05/31 07:08:17;;;;;;;3.77;2.53;;;15.50;61.30;;;;;;7396243;19;20556;-76
2022/05/31 07:11:12;;;;;;;3.60;1.73;;;15.80;60.50;;;;;;7401637;19;20478;-77
2022/05/31 07:14:00;;;;;;;2.43;1.90;;;16.10;59.60;;;;;;7396306;19;20421;-77
2022/05/31 07:17:07;;;;;;;3.40;1.67;;;16.40;59.00;;;;;;7386022;19;20436;-77
2022/05/31 07:19:45;;;;;;;3.80;1.70;;;16.60;58.50;;;;;;7384430;19;20403;-77
2022/05/31 07:22:15;;;;;;;2.90;2.20;;;;;;;;;;7381846;19;21177;-77
2022/05/31 07:24:45;;;;;;;5.60;2.30;;;17.10;75.50;;;;;;7369272;19;20396;-76
2022/05/31 07:27:25;;;;;;;4.33;2.10;;;17.30;74.70;;;;;;7378214;19;20412;-76
2022/05/31 07:30:00;;;;;;;3.33;2.00;;;17.40;71.50;;;;;;7380820;19;20475;-76
2022/05/31 07:32:31;;;;;;;6.10;4.13;;;17.30;71.40;;;;;;7374490;19;20416;-76
2022/05/31 07:35:04;;;;;;;6.83;4.40;;;17.60;65.90;;;;;;7376242;19;20412;-76
2022/05/31 07:37:33;;;;;;;7.33;4.70;;;17.70;61.10;;;;;;7373973;19;20401;-76
2022/05/31 07:40:04;;;;;;;8.80;4.80;;;17.80;59.10;;;;;;7376629;19;21340;-76
2022/05/31 07:42:36;;;;;;;9.30;4.47;;;17.70;58.50;;;;;;7369592;19;20380;-76
2022/05/31 07:45:08;;;;;;;8.70;4.30;;;17.90;57.40;;;;;;7374024;19;20412;-77
2022/05/31 07:47:38;;;;;;;7.40;5.20;;;18.10;56.50;;;;;;7374190;19;20380;-75
2022/05/31 07:50:09;;;;;;;6.87;4.03;;;18.20;58.50;;;;;;7375109;19;20400;-77
2022/05/31 07:53:10;;;;;;;5.90;4.10;;;18.30;56.10;;;;;;7371371;19;20764;-77
2022/05/31 07:55:56;;;;;;;4.10;3.00;;;18.50;55.70;;;;;;7372459;19;20899;-77
2022/05/31 07:58:50;;;;;;;6.07;3.53;;;18.60;56.30;;;;;;7371865;19;20392;-77
2022/05/31 08:01:39;;;;;;;2.37;1.57;;;18.80;54.40;;;;;;7370033;19;20804;-77
2022/05/31 08:04:18;;;;;;;3.60;2.40;;;18.70;52.30;;;;;;7363339;19;20408;-77
2022/05/31 08:06:47;;;;;;;3.60;1.60;;;18.40;53.70;;;;;;7369047;19;20400;-76
2022/05/31 08:09:17;;;;;;;2.50;2.30;;;18.20;53.60;;;;;;7371494;19;21255;-77
2022/05/31 08:11:51;;;;;;;2.40;1.60;;;18.40;54.00;;;;;;7370467;19;20391;-78
2022/05/31 08:14:23;;;;;;;2.93;1.60;;;18.60;53.50;;;;;;7367706;19;20416;-78
2022/05/31 08:16:54;;;;;;;3.67;1.90;;;18.90;52.80;;;;;;7370940;19;20388;-78
2022/05/31 08:19:26;;;;;;;3.53;1.80;;;19.20;52.30;;;;;;7371133;19;20400;-78
2022/05/31 08:21:55;;;;;;;4.07;2.00;;;19.40;51.50;;;;;;7372010;19;20435;-78
2022/05/31 08:24:26;;;;;;;2.13;1.77;;;19.50;51.40;;;;;;7372528;19;20451;-78
2022/05/31 08:26:59;;;;;;;2.10;1.73;;;19.20;52.20;;;;;;7373011;19;20826;-78
2022/05/31 08:29:31;;;;;;;2.60;1.80;;;19.30;52.70;;;;;;7372243;19;20411;-78
2022/05/31 08:32:01;;;;;;;4.90;1.70;;;19.60;53.20;;;;;;7370195;19;20415;-78
2022/05/31 08:34:31;;;;;;;1.97;1.70;;;19.90;50.90;;;;;;7373269;19;20383;-78
2022/05/31 08:37:00;;;;;;;2.53;1.63;;;20.10;50.00;;;;;;7370717;19;20387;-78
2022/05/31 08:39:30;;;;;;;2.83;1.63;;;20.20;49.50;;;;;;7373964;19;20396;-78
2022/05/31 08:42:06;;;;;;;2.33;1.50;;;20.70;52.40;;;;;;7369491;19;21063;-78
2022/05/31 08:44:51;;;;;;;2.97;1.60;;;20.60;53.00;;;;;;7373052;19;20420;-78
2022/05/31 08:47:26;;;;;;;4.73;1.50;;;20.50;52.70;;;;;;7366697;19;20484;-78
2022/05/31 08:53:06;;;;;;;2.03;1.50;;;20.50;52.80;;;;;;7370832;19;20467;-78
2022/05/31 08:58:33;;;;;;;2.80;1.60;;;20.80;51.90;;;;;;7372385;19;20495;-78
2022/05/31 09:01:06;;;;;;;1.67;1.33;;;21.00;49.40;;;;;;7379172;19;20424;-78
2022/05/31 09:03:44;;;;;;;4.10;1.60;;;21.20;49.60;;;;;;7377713;19;20899;-78
2022/05/31 09:06:17;;;;;;;1.50;1.40;;;21.40;49.20;;;;;;7375521;19;20400;-78
2022/05/31 09:08:53;;;;;;;2.10;1.70;;;21.40;49.30;;;;;;7380210;19;20483;-78
2022/05/31 09:11:26;;;;;;;3.93;1.70;;;21.60;48.00;;;;;;7378137;19;20497;-78
2022/05/31 09:14:08;;;;;;;3.40;1.70;;;21.80;52.50;;;;;;7378539;19;20868;-78
2022/05/31 09:16:47;;;;;;;4.07;1.83;;;21.80;53.70;;;;;;7377933;19;20392;-78
2022/05/31 09:19:23;;;;;;;4.00;1.77;;;21.80;53.10;;;;;;7377679;19;20422;-78
2022/05/31 09:21:53;;;;;;;1.90;1.40;;;21.70;53.20;;;;;;7375077;19;20516;-78
2022/05/31 09:24:25;;;;;;;1.50;1.40;;;21.90;52.30;;;;;;7375263;19;20556;-78
2022/05/31 09:27:09;;;;;;;1.90;1.70;;;22.00;51.70;;;;;;7377810;19;20376;-78
2022/05/31 09:30:01;;;;;;;2.27;1.50;;;21.60;52.80;;;;;;7377396;19;20405;-79
2022/05/31 09:33:04;;;;;;;2.10;1.57;;;21.60;53.00;;;;;;7377461;19;20396;-78
2022/05/31 09:35:47;;;;;;;1.90;1.60;;;21.40;52.20;;;;;;7377584;19;20367;-78
2022/05/31 09:38:34;;;;;;;2.03;1.80;;;21.60;52.20;;;;;;7375483;19;20380;-78
2022/05/31 09:41:10;;;;;;;2.03;1.83;;;21.60;51.90;;;;;;7377519;19;20412;-78
2022/05/31 09:43:46;;;;;;;2.93;1.17;;;21.60;52.00;;;;;;7372039;19;20432;-78
2022/05/31 09:46:35;;;;;;;2.67;1.40;;;21.60;51.80;;;;;;7377452;19;20920;-78
2022/05/31 09:49:26;;;;;;;1.60;1.50;;;22.20;51.60;;;;;;7377147;19;20404;-79
2022/05/31 09:51:55;;;;;;;1.33;1.23;;;21.80;50.40;;;;;;7376318;19;20560;-78
2022/05/31 09:57:23;;;;;;;5.10;1.60;;;21.90;50.50;;;;;;7376460;19;20511;-78
2022/05/31 10:00:19;;;;;;;3.73;1.40;;;21.90;50.50;;;;;;7377359;19;20447;-78
2022/05/31 10:03:16;;;;;;;2.90;1.80;;;22.00;48.60;;;;;;7372875;19;20384;-78
2022/05/31 10:05:49;;;;;;;4.20;1.93;;;22.10;50.00;;;;;;7373110;19;20843;-78
2022/05/31 10:08:33;;;;;;;2.23;1.60;;;22.10;50.00;;;;;;7372486;19;20396;-78
2022/05/31 10:11:07;;;;;;;3.30;1.53;;;22.30;49.80;;;;;;7376737;19;20395;-78
2022/05/31 10:13:41;;;;;;;1.60;1.50;;;22.60;48.70;;;;;;7376461;19;20404;-78
2022/05/31 10:16:13;;;;;;;3.63;1.30;;;22.60;45.40;;;;;;7384562;19;20392;-78
2022/05/31 10:18:50;;;;;;;3.33;1.50;;;22.70;46.50;;;;;;7376569;19;20441;-78
2022/05/31 10:21:36;;;;;;;3.83;1.80;;;22.90;47.40;;;;;;7375174;19;20412;-78
2022/05/31 10:24:13;;;;;;;5.43;2.30;;;22.80;47.20;;;;;;7373331;19;20415;-78
2022/05/31 10:27:12;;;;;;;1.70;1.60;;;22.70;48.80;;;;;;7373450;19;21290;-79
2022/05/31 10:30:05;;;;;;;2.50;1.50;;;22.20;50.30;;;;;;7376585;19;21121;-79
2022/05/31 10:32:56;;;;;;;3.07;2.07;;;21.90;51.30;;;;;;7378426;19;20487;-78
2022/05/31 10:35:29;;;;;;;3.57;1.73;;;22.00;51.60;;;;;;7373488;19;20376;-78
2022/05/31 10:38:10;;;;;;;2.40;2.20;;;22.00;51.00;;;;;;7375050;19;20388;-79
2022/05/31 10:40:46;;;;;;;3.37;1.50;;;22.10;50.70;;;;;;7375988;19;20364;-79
2022/05/31 10:43:30;;;;;;;4.13;1.90;;;22.20;51.30;;;;;;7373593;19;20416;-78
2022/05/31 10:46:00;;;;;;;9.87;2.43;;;22.50;52.00;;;;;;7378010;19;20416;-78
2022/05/31 10:48:32;;;;;;;2.60;1.90;;;22.80;51.50;;;;;;7374409;19;21051;-78
2022/05/31 10:51:06;;;;;;;3.47;1.73;;;23.20;50.60;;;;;;7373462;19;20431;-78
2022/05/31 10:53:48;;;;;;;5.30;1.90;;;23.50;50.80;;;;;;7375310;19;20412;-78
2022/05/31 10:56:22;;;;;;;3.40;2.30;;;23.80;50.40;;;;;;7374817;19;20432;-78
2022/05/31 10:59:00;;;;;;;3.30;2.00;;;24.00;49.80;;;;;;7371636;19;20774;-78
2022/05/31 11:01:49;;;;;;;2.47;2.27;;;24.00;49.20;;;;;;7374385;19;20917;-77
2022/05/31 11:04:39;;;;;;;4.93;2.20;;;24.10;49.70;;;;;;7376456;19;20420;-77
2022/05/31 11:07:20;;;;;;;6.70;2.50;;;24.20;50.00;;;;;;7373477;19;20400;-78
2022/05/31 11:12:59;;;;;;;3.20;1.80;;;24.20;49.40;;;;;;7374219;19;20408;-78
2022/05/31 11:15:41;;;;;;;3.10;2.10;;;24.40;50.10;;;;;;7374705;19;20827;-78
2022/05/31 11:18:30;;;;;;;3.43;1.67;;;24.50;51.10;;;;;;7372653;19;20412;-78
2022/05/31 11:21:06;;;;;;;2.70;1.80;;;24.60;50.60;;;;;;7374293;19;20444;-78
2022/05/31 11:24:00;;;;;;;4.73;2.20;;;24.20;50.20;;;;;;7371920;19;20763;-77
2022/05/31 11:26:53;;;;;;;2.67;2.20;;;24.70;49.70;;;;;;7374707;19;20420;-78
2022/05/31 11:29:45;;;;;;;2.70;2.00;;;24.60;48.60;;;;;;7372673;19;21018;-78
2022/05/31 11:32:27;;;;;;;5.40;2.07;;;24.60;48.40;;;;;;7373282;19;20444;-78
2022/05/31 11:35:09;;;;;;;5.77;2.43;;;24.80;47.50;;;;;;7356429;19;20388;-78
2022/05/31 11:37:57;;;;;;;5.73;2.00;;;24.80;46.40;;;;;;7366690;19;21054;-80
2022/05/31 11:40:40;;;;;;;2.10;1.90;;;24.80;47.00;;;;;;7370114;19;20408;-82
2022/05/31 11:43:52;;;;;;;3.53;1.90;;;24.70;46.40;;;;;;7369542;19;20412;-81
2022/05/31 11:46:30;;;;;;;3.77;1.93;;;24.80;45.70;;;;;;7363404;19;20823;-82
2022/05/31 11:49:04;;;;;;;4.77;2.23;;;24.90;46.10;;;;;;7366511;19;20400;-82
2022/05/31 11:51:56;;;;;;;3.10;1.83;;;24.90;46.10;;;;;;7369118;19;20401;-81
2022/05/31 11:58:00;;;;;;;6.10;1.70;;;25.10;45.50;;;;;;7367112;19;20971;-84
2022/05/31 12:00:39;;;;;;;3.50;1.93;;;25.20;45.20;;;;;;7365161;19;21104;-84
2022/05/31 12:03:16;;;;;;;2.47;1.53;;;25.30;46.80;;;;;;7356881;19;20428;-80
2022/05/31 12:05:50;;;;;;;6.07;1.67;;;25.20;37.10;;;;;;7360192;19;20951;-83
2022/05/31 12:08:24;;;;;;;7.30;4.23;;;25.10;37.50;;;;;;7359961;19;20948;-82
2022/05/31 12:10:55;;;;;;;12.67;1.87;;;25.00;36.80;;;;;;7361432;19;20419;-83
2022/05/31 12:13:26;;;;;;;1.53;1.40;;;24.90;36.30;;;;;;7369409;19;20875;-80
2022/05/31 12:15:59;;;;;;;6.33;1.73;;;25.10;35.80;;;;;;7369721;19;21177;-83
2022/05/31 12:18:38;;;;;;;3.60;1.70;;;24.60;35.70;;;;;;7369321;19;20407;-83
2022/05/31 12:21:19;;;;;;;4.10;1.50;;;25.10;36.40;;;;;;7361427;19;20483;-80
2022/05/31 12:23:55;;;;;;;2.20;1.70;;;24.90;36.20;;;;;;7362034;19;20444;-79
2022/05/31 12:26:35;;;;;;;2.60;2.03;;;24.80;35.90;;;;;;7363388;19;20404;-82
2022/05/31 12:29:15;;;;;;;1.90;1.63;;;24.60;36.20;;;;;;7365550;19;20415;-82
2022/05/31 12:31:50;;;;;;;3.00;1.77;;;24.50;36.20;;;;;;7376054;19;20411;-82
2022/05/31 12:34:43;;;;;;;1.70;1.20;;;24.60;36.00;;;;;;7375914;19;21615;-82
2022/05/31 12:37:15;;;;;;;4.03;1.83;;;24.70;36.10;;;;;;7367557;19;20372;-81
2022/05/31 12:39:46;;;;;;;5.80;1.80;;;24.60;36.30;;;;;;7367830;19;20531;-82
2022/05/31 12:42:43;;;;;;;2.13;1.47;;;24.50;35.70;;;;;;7372421;19;21113;-82
2022/05/31 12:45:30;;;;;;;2.23;1.80;;;24.60;36.40;;;;;;7373588;19;20411;-83
2022/05/31 12:48:12;;;;;;;2.87;1.90;;;24.70;36.20;;;;;;7372633;19;20400;-82
2022/05/31 12:51:08;;;;;;;3.20;1.77;;;24.80;36.30;;;;;;7362489;19;20412;-80
2022/05/31 12:53:57;;;;;;;2.27;1.70;;;24.90;35.10;;;;;;7376026;19;20416;-80
2022/05/31 12:56:42;;;;;;;2.03;1.83;;;25.20;35.60;;;;;;7365192;19;20439;-82
2022/05/31 12:59:34;;;;;;;9.50;3.03;;;25.50;34.80;;;;;;7369567;19;20472;-82
2022/05/31 13:02:04;;;;;;;2.10;1.60;;;25.60;35.60;;;;;;7373992;19;21402;-82
2022/05/31 13:04:36;;;;;;;2.50;1.87;;;25.70;35.00;;;;;;7372124;19;20416;-82
2022/05/31 13:07:11;;;;;;;3.60;1.63;;;25.70;35.20;;;;;;7366061;19;20423;-81
2022/05/31 13:09:44;;;;;;;2.00;1.80;;;25.70;34.20;;;;;;7376304;19;20412;-80
2022/05/31 13:20:44;;;;;;;4.20;1.73;;;25.40;34.30;;;;;;7369210;19;20413;-81
2022/05/31 13:23:19;;;;;;;2.63;1.50;;;25.30;34.20;;;;;;7372558;19;20839;-81
2022/05/31 13:25:54;;;;;;;2.37;1.50;;;25.20;34.40;;;;;;7389900;19;20416;-81
2022/05/31 13:28:32;;;;;;;3.50;1.30;;;24.90;34.50;;;;;;7391980;19;20396;-82
2022/05/31 13:31:05;;;;;;;2.47;1.30;;;25.00;34.80;;;;;;7386917;19;20404;-83
2022/05/31 13:33:35;;;;;;;1.50;1.33;;;24.60;34.40;;;;;;7392810;19;20651;-82
2022/05/31 13:36:16;;;;;;;3.77;1.80;;;24.90;34.40;;;;;;7399164;19;20393;-82
2022/05/31 13:38:47;;;;;;;2.90;1.50;;;24.60;35.40;;;;;;7412356;19;20439;-82
2022/05/31 13:41:22;;;;;;;1.93;1.40;;;24.50;34.80;;;;;;7408715;19;20454;-83
2022/05/31 13:43:54;;;;;;;4.17;1.40;;;24.50;34.70;;;;;;7406574;19;20444;-82
2022/05/31 13:46:28;;;;;;;2.57;1.40;;;24.20;36.10;;;;;;7419473;19;20405;-81
2022/05/31 13:49:03;;;;;;;3.73;1.60;;;24.00;35.30;;;;;;7415321;19;20420;-82
2022/05/31 13:51:36;;;;;;;4.50;1.47;;;24.00;35.50;;;;;;7391811;19;20408;-85
2022/05/31 13:54:15;;;;;;;3.90;1.80;;;24.00;35.80;;;;;;7376907;19;20413;-84
2022/05/31 13:56:46;;;;;;;3.20;1.50;;;24.10;36.50;;;;;;7370362;19;21436;-82
2022/05/31 13:59:33;;;;;;;12.13;3.50;;;24.10;36.40;;;;;;7364389;19;20441;-86
2022/05/31 14:02:03;;;;;;;7.00;2.13;;;24.20;36.90;;;;;;7378643;19;21087;-88
2022/05/31 14:04:36;;;;;;;5.37;1.97;;;24.20;37.00;;;;;;7375713;19;20431;-85
2022/05/31 14:07:16;;;;;;;3.57;1.97;;;24.20;37.00;;;;;;7376867;19;20404;-85
2022/05/31 14:09:54;;;;;;;2.60;1.30;;;24.00;38.80;;;;;;7377754;19;20757;-90
2022/05/31 14:12:32;;;;;;;2.80;1.33;;;24.20;40.80;;;;;;7386374;19;21085;-89
2022/05/31 14:15:02;;;;;;;6.00;1.60;;;24.70;39.50;;;;;;7368184;19;21216;-91
2022/05/31 14:17:39;;;;;;;1.50;1.40;;;25.00;39.00;;;;;;7392409;19;20414;-88
2022/05/31 14:20:20;;;;;;;3.07;1.70;;;25.40;39.50;;;;;;7390167;19;20407;-85
2022/05/31 14:22:53;;;;;;;3.83;2.07;;;25.70;39.00;;;;;;7378355;19;20403;-86